EHBK/MST METAR and TAF weather

Enter ICAO airport designator
Station Type Date Time Source
EHBK METAR 2018/01/24 06:55 UTC NOAA

EHBK 240655Z AUTO 20018KT 9999 FEW010 BKN022 OVC028 11/09 Q1017 TEMPO BKN012


Station Type Date Time Source
EHBK Decoded METAR 2018/01/24 06:55 UTC NOAA

Maastricht Airport Zuid Limburg, Netherlands (EHBK) 50-55N 005-47E 116M
Jan 24, 2018 - 01:55 AM EST / 2018.01.24 0655 UTC
Wind: from the SSW (200 degrees) at 21 MPH (18 KT):0
Visibility: greater than 7 mile(s):0
Sky conditions: overcast
Temperature: 51 F (11 C)
Dew Point: 48 F (9 C)
Relative Humidity: 87%
Pressure (altimeter): 30.03 in. Hg (1017 hPa)
ob: EHBK 240655Z AUTO 20018KT 9999 FEW010 BKN022 OVC028 11/09 Q1017 TEMPO BKN012
cycle: 7

Station Type Date Time Source
EHBK TAF 2018/01/24 06:27 UTC NOAA

TAF EHBK 240504Z 2406/2512 21015KT 9999 BKN017 PROB30
TEMPO 2406/2409 6000 -DZ BKN012
BECMG 2408/2411 21021G33KT
TEMPO 2422/2505 4000 RA SHRA BKN008 SCT015TCU
BECMG 2423/2502 25011KT
BECMG 2502/2505 22010KT


Example: see airport list